Time;durP1;ratioP1;P1;durP2;ratioP2;P2;SDS_P1;SDS_P2;PMS_P1;PMS_P2;Temp;Humidity;BMP_temperature;BMP_pressure;BME280_temperature;BME280_humidity;BME280_pressure;Samples;Min_cycle;Max_cycle;Signal;HPM_P1;HPM_P2
2023/07/29 00:01:12;;;;;;;1.50;0.70;;;16.40;99.90;;;;;;5087351;28;20598;-72
2023/07/29 00:03:37;;;;;;;2.13;1.10;;;16.40;99.90;;;;;;5073499;28;20260;-73
2023/07/29 00:06:03;;;;;;;1.77;0.83;;;16.40;99.90;;;;;;5073780;28;20224;-72
2023/07/29 00:08:29;;;;;;;4.00;1.00;;;16.30;99.90;;;;;;5095430;28;20181;-72
2023/07/29 00:10:54;;;;;;;10.83;1.00;;;16.30;99.90;;;;;;5098631;28;20192;-72
2023/07/29 00:13:20;;;;;;;3.70;1.30;;;16.30;99.90;;;;;;5097458;28;20263;-72
2023/07/29 00:15:45;;;;;;;2.10;1.10;;;16.30;99.90;;;;;;5092717;28;22009;-72
2023/07/29 00:18:11;;;;;;;1.57;0.97;;;16.30;99.90;;;;;;5087752;28;20201;-72
2023/07/29 00:20:37;;;;;;;3.77;0.90;;;16.30;99.90;;;;;;5090189;28;20618;-72
2023/07/29 00:23:02;;;;;;;1.60;0.90;;;16.30;99.90;;;;;;5082002;28;20306;-72
2023/07/29 00:25:28;;;;;;;2.50;1.13;;;16.30;99.90;;;;;;5080663;28;20532;-72
2023/07/29 00:27:57;;;;;;;2.67;1.10;;;16.40;99.90;;;;;;5061088;28;20642;-72
2023/07/29 00:30:22;;;;;;;2.03;1.00;;;16.40;99.90;;;;;;5093755;28;20216;-72
2023/07/29 00:32:48;;;;;;;2.07;0.90;;;16.40;99.90;;;;;;5073673;28;20561;-72
2023/07/29 00:35:14;;;;;;;2.17;0.90;;;16.40;99.90;;;;;;5094877;28;20203;-72
2023/07/29 00:37:39;;;;;;;4.70;1.00;;;16.40;99.90;;;;;;5073258;28;20339;-72
2023/07/29 00:40:16;;;;;;;4.73;1.10;;;16.40;99.90;;;;;;5072944;28;20177;-72
2023/07/29 00:42:42;;;;;;;2.60;0.93;;;16.40;99.90;;;;;;5072232;28;20177;-72
2023/07/29 00:45:09;;;;;;;8.43;1.33;;;16.40;99.90;;;;;;5087177;28;20425;-72
2023/07/29 00:47:34;;;;;;;3.93;1.17;;;16.40;99.90;;;;;;5073876;28;20929;-72
2023/07/29 00:50:00;;;;;;;1.50;0.90;;;16.40;99.90;;;;;;5072956;28;20428;-72
2023/07/29 00:52:26;;;;;;;2.00;0.93;;;16.50;99.90;;;;;;5080844;28;20519;-72
2023/07/29 00:54:51;;;;;;;4.20;1.50;;;16.40;99.90;;;;;;5077870;28;20822;-72
2023/07/29 00:57:19;;;;;;;2.07;1.10;;;16.50;99.90;;;;;;5080058;28;20192;-72
2023/07/29 00:59:44;;;;;;;1.53;0.83;;;16.50;99.90;;;;;;5078185;28;20240;-72
2023/07/29 01:02:10;;;;;;;2.13;1.17;;;16.50;99.90;;;;;;5079757;28;20491;-72
2023/07/29 01:04:36;;;;;;;1.67;0.80;;;16.50;99.90;;;;;;5078273;28;20215;-72
2023/07/29 01:07:16;;;;;;;2.60;0.90;;;16.50;99.90;;;;;;5082913;28;20273;-72
2023/07/29 01:10:19;;;;;;;2.60;1.33;;;16.50;99.90;;;;;;5091165;28;20272;-72
2023/07/29 01:13:04;;;;;;;2.63;1.40;;;16.50;99.90;;;;;;5081626;28;20477;-72
2023/07/29 01:15:40;;;;;;;1.67;0.87;;;16.50;99.90;;;;;;5100274;28;20433;-72
2023/07/29 01:18:11;;;;;;;1.80;1.00;;;16.50;99.90;;;;;;5072737;28;20466;-72
2023/07/29 01:20:43;;;;;;;2.33;1.10;;;16.50;99.90;;;;;;5072744;28;20490;-72
2023/07/29 01:23:09;;;;;;;2.57;1.03;;;16.50;99.90;;;;;;5071852;28;20419;-72
2023/07/29 01:25:35;;;;;;;2.80;0.93;;;16.50;99.90;;;;;;5085755;28;20479;-72
2023/07/29 01:28:00;;;;;;;3.10;1.30;;;16.50;99.90;;;;;;5071514;28;20262;-72
2023/07/29 01:30:33;;;;;;;2.00;0.90;;;16.50;99.90;;;;;;5071910;28;20212;-73
2023/07/29 01:33:08;;;;;;;3.10;1.23;;;16.50;99.90;;;;;;5072281;28;20664;-72
2023/07/29 01:35:42;;;;;;;1.63;0.80;;;16.50;99.90;;;;;;5085261;28;20448;-72
2023/07/29 01:38:31;;;;;;;4.70;1.20;;;16.40;99.90;;;;;;5071874;28;20893;-72
2023/07/29 01:41:01;;;;;;;2.27;1.00;;;16.50;99.90;;;;;;5091083;28;20418;-72
2023/07/29 01:43:30;;;;;;;2.23;1.17;;;16.40;99.90;;;;;;5077833;28;20426;-72
2023/07/29 01:45:56;;;;;;;2.40;1.03;;;16.40;99.90;;;;;;5072975;28;20436;-73
2023/07/29 01:48:22;;;;;;;1.73;1.07;;;16.40;99.90;;;;;;5085373;28;20423;-72
2023/07/29 01:50:48;;;;;;;3.13;1.20;;;16.30;99.90;;;;;;5078076;28;20248;-72
2023/07/29 01:53:13;;;;;;;6.13;1.10;;;16.30;99.90;;;;;;5084300;28;20245;-72
2023/07/29 01:55:40;;;;;;;5.90;1.30;;;16.30;99.90;;;;;;5084477;28;20274;-72
2023/07/29 01:58:05;;;;;;;2.73;1.50;;;16.30;99.90;;;;;;5053055;28;20203;-72
2023/07/29 02:00:31;;;;;;;7.03;1.50;;;16.40;99.90;;;;;;5071501;28;20484;-73
2023/07/29 02:02:56;;;;;;;5.00;1.27;;;16.30;99.90;;;;;;5084805;28;20187;-72
2023/07/29 02:05:22;;;;;;;1.87;1.00;;;16.30;99.90;;;;;;5085074;28;20193;-72
2023/07/29 02:07:48;;;;;;;2.00;1.10;;;16.30;99.90;;;;;;5092154;28;20222;-72
2023/07/29 02:10:14;;;;;;;2.30;1.00;;;16.30;99.90;;;;;;5093682;28;20202;-72
2023/07/29 02:12:39;;;;;;;9.67;1.50;;;16.30;99.90;;;;;;5081908;28;20209;-72
2023/07/29 02:15:06;;;;;;;2.60;1.30;;;16.30;99.90;;;;;;5098845;28;20180;-72
2023/07/29 02:17:31;;;;;;;2.40;1.50;;;16.30;99.90;;;;;;5073273;28;20185;-72
2023/07/29 02:19:57;;;;;;;8.80;1.70;;;16.30;99.90;;;;;;5078290;28;20469;-72
2023/07/29 02:22:22;;;;;;;2.53;1.30;;;16.30;99.90;;;;;;5077403;28;20193;-72
2023/07/29 02:24:48;;;;;;;6.17;1.50;;;16.30;99.90;;;;;;5083929;28;20260;-72
2023/07/29 02:27:14;;;;;;;2.80;1.23;;;16.20;99.90;;;;;;5071410;28;20260;-72
2023/07/29 02:29:39;;;;;;;3.00;1.50;;;16.30;99.90;;;;;;5091571;28;20194;-72
2023/07/29 02:32:05;;;;;;;4.40;1.03;;;16.30;99.90;;;;;;5091574;28;20195;-72
2023/07/29 02:34:31;;;;;;;3.10;1.23;;;16.20;99.90;;;;;;5087908;28;20216;-72
2023/07/29 02:36:56;;;;;;;4.50;1.63;;;16.20;99.90;;;;;;5079254;28;20216;-72
2023/07/29 02:39:23;;;;;;;22.10;3.07;;;16.20;99.90;;;;;;5071656;28;20213;-72
2023/07/29 02:41:48;;;;;;;2.60;1.50;;;16.20;99.90;;;;;;5084435;28;20611;-72
2023/07/29 02:44:15;;;;;;;3.03;1.13;;;16.30;99.90;;;;;;5065318;28;20943;-72
2023/07/29 02:46:41;;;;;;;10.97;1.10;;;16.30;99.90;;;;;;5083084;28;20184;-72
2023/07/29 02:49:07;;;;;;;2.17;1.40;;;16.30;99.90;;;;;;5077228;28;20776;-72
2023/07/29 02:51:32;;;;;;;4.20;1.40;;;16.40;99.90;;;;;;5077728;28;20219;-72
2023/07/29 02:53:58;;;;;;;2.60;1.33;;;16.40;99.90;;;;;;5089948;28;20177;-72
2023/07/29 02:56:24;;;;;;;2.70;1.60;;;16.40;99.90;;;;;;5091131;28;20543;-72
2023/07/29 02:58:51;;;;;;;5.23;1.30;;;16.50;99.90;;;;;;5076792;28;20215;-72
2023/07/29 03:01:17;;;;;;;2.07;1.17;;;16.50;99.90;;;;;;5077442;28;20177;-72
2023/07/29 03:03:43;;;;;;;2.83;1.43;;;16.50;99.90;;;;;;5076458;28;20421;-72
2023/07/29 03:06:10;;;;;;;2.53;1.20;;;16.50;99.90;;;;;;5080068;28;20431;-72
2023/07/29 03:08:36;;;;;;;1.83;1.13;;;16.60;99.90;;;;;;5082069;28;20201;-72
2023/07/29 03:11:13;;;;;;;3.83;1.33;;;16.60;99.90;;;;;;5085590;28;20431;-72
2023/07/29 03:13:39;;;;;;;2.53;1.10;;;16.70;99.90;;;;;;5084596;28;20525;-72
2023/07/29 03:16:08;;;;;;;2.93;1.47;;;16.60;99.90;;;;;;5081653;28;20736;-72
2023/07/29 03:18:34;;;;;;;2.43;1.23;;;16.60;99.90;;;;;;5081871;28;20462;-73
2023/07/29 03:21:00;;;;;;;3.10;1.40;;;16.60;99.90;;;;;;5064036;28;20437;-73
2023/07/29 03:23:27;;;;;;;2.80;1.30;;;16.60;99.90;;;;;;5081471;28;20353;-72
2023/07/29 03:25:58;;;;;;;4.30;1.57;;;16.60;99.90;;;;;;5074045;28;20427;-72
2023/07/29 03:28:29;;;;;;;7.43;1.10;;;16.60;99.90;;;;;;5070156;28;20423;-72
2023/07/29 03:30:55;;;;;;;2.23;1.30;;;16.60;99.90;;;;;;5083508;28;20431;-72
2023/07/29 03:33:21;;;;;;;3.70;1.40;;;16.70;99.90;;;;;;5072979;28;20423;-72
2023/07/29 03:35:47;;;;;;;2.23;1.03;;;16.70;99.90;;;;;;5075653;28;20521;-72
2023/07/29 03:38:13;;;;;;;6.40;1.30;;;16.70;99.90;;;;;;5070497;28;20197;-72
2023/07/29 03:40:39;;;;;;;2.30;1.03;;;16.70;99.90;;;;;;5070270;28;20193;-72
2023/07/29 03:43:05;;;;;;;2.13;1.17;;;16.70;99.90;;;;;;5070127;28;20415;-72
2023/07/29 03:45:31;;;;;;;2.90;1.70;;;16.70;99.90;;;;;;5069936;28;20488;-72
2023/07/29 03:47:57;;;;;;;3.40;1.33;;;16.70;99.90;;;;;;5080425;28;20338;-73
2023/07/29 03:50:24;;;;;;;3.07;1.40;;;16.70;99.90;;;;;;5073166;28;20968;-72
2023/07/29 03:52:49;;;;;;;2.80;1.10;;;16.70;99.90;;;;;;5070128;28;20181;-72
2023/07/29 03:55:15;;;;;;;2.80;1.60;;;16.70;99.90;;;;;;5069484;28;20419;-72
2023/07/29 03:57:41;;;;;;;1.70;1.03;;;16.70;99.90;;;;;;5069464;28;20314;-72
2023/07/29 04:00:08;;;;;;;2.80;1.27;;;16.80;99.90;;;;;;5073897;28;20180;-72
2023/07/29 04:02:37;;;;;;;3.20;1.27;;;16.80;99.90;;;;;;5089905;28;20184;-72
2023/07/29 04:05:03;;;;;;;1.80;1.00;;;16.80;99.90;;;;;;5085217;28;20431;-72
2023/07/29 04:07:29;;;;;;;3.20;1.50;;;16.80;99.90;;;;;;5087710;28;20424;-73
2023/07/29 04:09:55;;;;;;;5.10;1.63;;;16.80;99.90;;;;;;5093835;28;20417;-72
2023/07/29 04:12:21;;;;;;;2.53;0.90;;;16.80;99.90;;;;;;5096024;28;20673;-72
2023/07/29 04:14:47;;;;;;;2.23;0.90;;;16.80;99.90;;;;;;5097925;28;20177;-72
2023/07/29 04:17:12;;;;;;;3.17;1.70;;;16.80;99.90;;;;;;5088626;28;21250;-72
2023/07/29 04:19:38;;;;;;;2.00;1.00;;;16.80;99.90;;;;;;5093009;28;20207;-72
2023/07/29 04:22:04;;;;;;;10.83;1.43;;;16.80;99.90;;;;;;5082782;28;20228;-72
2023/07/29 04:24:29;;;;;;;2.30;1.00;;;16.80;99.90;;;;;;5072957;28;20256;-72
2023/07/29 04:26:55;;;;;;;2.23;1.20;;;16.70;99.90;;;;;;5073250;28;20264;-73
2023/07/29 04:29:22;;;;;;;2.27;1.37;;;16.70;99.90;;;;;;5073515;28;20183;-73
2023/07/29 04:31:48;;;;;;;3.93;1.67;;;16.60;99.90;;;;;;5073121;28;20239;-73
2023/07/29 04:34:14;;;;;;;3.93;1.83;;;16.50;99.90;;;;;;5087257;28;20775;-73
2023/07/29 04:36:40;;;;;;;2.77;1.80;;;16.50;99.90;;;;;;5082196;28;20454;-73
2023/07/29 04:39:05;;;;;;;3.07;1.53;;;16.40;99.90;;;;;;5090705;28;20283;-73
2023/07/29 04:41:31;;;;;;;3.50;1.97;;;16.40;99.90;;;;;;5082554;28;20792;-73
2023/07/29 04:43:56;;;;;;;4.17;1.77;;;16.30;99.90;;;;;;5072495;28;20177;-73
2023/07/29 04:46:22;;;;;;;11.17;1.93;;;16.30;99.90;;;;;;5072910;28;20173;-73
2023/07/29 04:48:47;;;;;;;11.50;2.00;;;16.30;99.90;;;;;;5090130;28;20225;-73
2023/07/29 04:51:13;;;;;;;3.73;1.70;;;16.40;99.90;;;;;;5082732;28;20256;-73
2023/07/29 04:53:39;;;;;;;3.90;1.80;;;16.30;99.90;;;;;;5085653;28;20185;-73
2023/07/29 04:56:05;;;;;;;10.10;2.60;;;16.30;99.90;;;;;;5073284;28;20192;-73
2023/07/29 04:58:34;;;;;;;5.30;1.90;;;16.30;99.90;;;;;;5075964;28;20246;-73
2023/07/29 05:01:00;;;;;;;3.90;1.90;;;16.30;99.90;;;;;;5082051;28;20488;-73
2023/07/29 05:03:26;;;;;;;14.10;1.83;;;16.20;99.90;;;;;;5076103;28;20806;-72
2023/07/29 05:05:53;;;;;;;5.40;1.53;;;16.20;99.90;;;;;;5082292;28;20193;-72
2023/07/29 05:08:19;;;;;;;4.07;1.60;;;16.30;99.90;;;;;;5094463;28;20197;-73
2023/07/29 05:10:48;;;;;;;4.70;1.80;;;16.30;99.90;;;;;;5096183;28;20413;-72
2023/07/29 05:13:13;;;;;;;3.07;1.80;;;16.40;99.90;;;;;;5082725;28;20681;-72
2023/07/29 05:15:39;;;;;;;4.43;1.70;;;16.40;99.90;;;;;;5097674;28;20530;-72
2023/07/29 05:18:05;;;;;;;3.70;1.50;;;16.50;99.90;;;;;;5087303;28;20581;-72
2023/07/29 05:20:30;;;;;;;3.83;2.10;;;16.50;99.90;;;;;;5072984;28;20180;-72
2023/07/29 05:22:56;;;;;;;3.20;1.77;;;16.50;99.90;;;;;;5077234;28;20218;-72
2023/07/29 05:25:21;;;;;;;3.03;1.70;;;16.50;99.90;;;;;;5092306;28;20253;-72
2023/07/29 05:27:47;;;;;;;3.20;1.87;;;16.50;99.90;;;;;;5073320;28;20181;-73
2023/07/29 05:30:12;;;;;;;2.60;1.47;;;16.60;99.90;;;;;;5072250;28;20177;-72
2023/07/29 05:32:38;;;;;;;3.30;1.90;;;16.60;99.90;;;;;;5071925;28;20204;-72
2023/07/29 05:35:04;;;;;;;6.17;1.80;;;16.70;99.90;;;;;;5092452;28;20192;-72
2023/07/29 05:37:31;;;;;;;4.03;2.57;;;16.70;99.90;;;;;;5085066;28;20601;-72
2023/07/29 05:39:56;;;;;;;6.07;2.63;;;16.80;99.90;;;;;;5080491;28;20503;-72
2023/07/29 05:42:22;;;;;;;25.10;2.00;;;16.90;99.90;;;;;;5076103;28;20177;-71
2023/07/29 05:44:47;;;;;;;3.63;1.57;;;16.90;99.90;;;;;;5091772;28;20184;-71
2023/07/29 05:47:13;;;;;;;2.23;1.30;;;16.90;99.90;;;;;;5080150;28;20195;-71
2023/07/29 05:49:39;;;;;;;6.67;1.13;;;16.90;99.90;;;;;;5080455;28;20189;-71
2023/07/29 05:52:04;;;;;;;2.23;1.27;;;16.90;99.90;;;;;;5076493;28;20584;-71
2023/07/29 05:54:30;;;;;;;2.03;1.20;;;17.00;99.90;;;;;;5079920;28;20185;-71
2023/07/29 05:56:56;;;;;;;2.60;1.23;;;17.00;99.90;;;;;;5071364;28;20266;-71
2023/07/29 05:59:21;;;;;;;3.30;1.37;;;17.10;99.90;;;;;;5071656;28;20205;-71
2023/07/29 06:01:47;;;;;;;2.37;1.30;;;17.20;99.90;;;;;;5071537;28;20188;-71
2023/07/29 06:04:12;;;;;;;3.63;1.43;;;17.20;99.90;;;;;;5082039;28;20299;-71
2023/07/29 06:06:38;;;;;;;2.77;1.10;;;17.30;99.90;;;;;;5077617;28;20245;-71
2023/07/29 06:09:03;;;;;;;2.73;1.47;;;17.30;99.90;;;;;;5095186;28;20211;-72
2023/07/29 06:11:29;;;;;;;3.37;1.43;;;17.30;99.90;;;;;;5100504;28;20222;-71
2023/07/29 06:13:55;;;;;;;2.53;1.10;;;17.40;99.90;;;;;;5084810;28;20242;-73
2023/07/29 06:16:20;;;;;;;2.90;1.30;;;17.40;99.90;;;;;;5083646;28;20181;-72
2023/07/29 06:18:46;;;;;;;2.17;1.30;;;17.60;99.90;;;;;;5084445;28;20983;-72
2023/07/29 06:21:16;;;;;;;4.33;1.00;;;17.70;99.90;;;;;;5088182;28;20193;-72
2023/07/29 06:23:43;;;;;;;2.30;1.47;;;17.70;99.90;;;;;;5087961;28;20191;-72
2023/07/29 06:26:08;;;;;;;2.30;1.30;;;17.80;99.90;;;;;;5080827;28;20418;-72
2023/07/29 06:28:34;;;;;;;2.23;1.20;;;17.80;99.90;;;;;;5090780;28;20415;-72
2023/07/29 06:30:59;;;;;;;2.47;1.23;;;17.80;99.90;;;;;;5086270;28;20185;-72
2023/07/29 06:33:25;;;;;;;5.80;1.70;;;17.70;99.90;;;;;;5075663;28;20189;-72
2023/07/29 06:35:51;;;;;;;6.37;1.50;;;17.70;99.90;;;;;;5074824;28;20587;-71
2023/07/29 06:38:21;;;;;;;2.40;1.03;;;17.70;99.90;;;;;;5075566;28;20213;-71
2023/07/29 06:40:49;;;;;;;3.70;1.90;;;17.50;99.90;;;;;;5080710;28;20565;-71
2023/07/29 06:43:15;;;;;;;3.87;1.50;;;17.40;99.90;;;;;;5075796;28;20422;-70
2023/07/29 06:45:41;;;;;;;3.73;1.63;;;17.30;99.90;;;;;;5077319;28;20877;-70
2023/07/29 06:48:07;;;;;;;5.73;2.00;;;17.30;99.90;;;;;;5087434;28;20418;-71
2023/07/29 06:50:32;;;;;;;1.40;1.00;;;17.20;99.90;;;;;;5077210;28;20191;-70
2023/07/29 06:52:58;;;;;;;3.37;1.60;;;17.20;99.90;;;;;;5091246;28;20645;-70
2023/07/29 06:55:24;;;;;;;3.30;1.23;;;17.10;99.90;;;;;;5076952;28;20224;-70
2023/07/29 06:57:49;;;;;;;2.77;1.40;;;17.10;99.90;;;;;;5079086;28;20196;-70
2023/07/29 07:00:15;;;;;;;2.23;1.13;;;17.00;99.90;;;;;;5084835;28;20639;-71
2023/07/29 07:02:41;;;;;;;2.17;1.07;;;17.00;99.90;;;;;;5082117;28;20188;-72
2023/07/29 07:05:07;;;;;;;4.30;1.60;;;16.90;99.90;;;;;;5085458;28;20176;-71
2023/07/29 07:07:33;;;;;;;1.70;1.07;;;16.90;99.90;;;;;;5088202;28;20421;-70
2023/07/29 07:09:59;;;;;;;1.80;1.00;;;16.90;99.90;;;;;;5092411;28;20323;-71
2023/07/29 07:12:24;;;;;;;2.60;1.13;;;16.90;99.90;;;;;;5084249;28;20905;-71
2023/07/29 07:14:50;;;;;;;3.30;1.20;;;16.90;99.90;;;;;;5097480;28;20188;-70
2023/07/29 07:17:16;;;;;;;2.17;1.23;;;16.90;99.90;;;;;;5097163;28;20203;-70
2023/07/29 07:19:41;;;;;;;2.87;1.27;;;16.90;99.90;;;;;;5071568;28;20212;-70
2023/07/29 07:22:07;;;;;;;2.33;1.10;;;16.90;99.90;;;;;;5082246;28;20250;-70
2023/07/29 07:24:32;;;;;;;1.87;1.00;;;16.90;99.90;;;;;;5076204;28;20176;-70
2023/07/29 07:26:58;;;;;;;6.60;2.10;;;17.00;99.90;;;;;;5078397;28;20276;-70
2023/07/29 07:29:24;;;;;;;3.00;1.43;;;17.10;99.90;;;;;;5084557;28;20204;-70
2023/07/29 07:31:52;;;;;;;5.77;2.30;;;17.20;99.90;;;;;;5070747;28;20193;-70
2023/07/29 07:34:18;;;;;;;2.80;1.27;;;17.20;99.90;;;;;;5078790;28;20185;-69
2023/07/29 07:36:44;;;;;;;3.60;1.50;;;17.30;99.90;;;;;;5070764;28;20439;-69
2023/07/29 07:39:09;;;;;;;10.80;2.17;;;17.30;99.90;;;;;;5070059;28;20471;-69
2023/07/29 07:41:35;;;;;;;2.43;1.33;;;17.30;99.90;;;;;;5070681;28;20232;-70
2023/07/29 07:44:01;;;;;;;3.20;1.77;;;17.30;99.90;;;;;;5069649;28;20185;-69
2023/07/29 07:46:26;;;;;;;2.37;1.63;;;17.40;99.90;;;;;;5082457;28;20218;-69
2023/07/29 07:48:52;;;;;;;4.23;2.03;;;17.40;99.90;;;;;;5071912;28;20189;-69
2023/07/29 07:51:17;;;;;;;2.13;0.90;;;17.50;99.90;;;;;;5070692;28;20242;-69
2023/07/29 07:53:43;;;;;;;5.57;1.10;;;17.60;99.90;;;;;;5084917;28;20181;-69
2023/07/29 07:56:09;;;;;;;2.43;1.20;;;17.70;99.90;;;;;;5073892;28;20185;-70
2023/07/29 07:58:34;;;;;;;2.83;1.43;;;17.80;99.90;;;;;;5078490;28;20661;-69
2023/07/29 08:01:04;;;;;;;3.50;1.73;;;18.00;99.90;;;;;;5086394;28;20191;-70
2023/07/29 08:03:30;;;;;;;2.40;1.50;;;18.00;99.90;;;;;;5084509;28;20223;-70
2023/07/29 08:05:56;;;;;;;2.37;1.10;;;18.10;99.90;;;;;;5092937;28;20450;-70
2023/07/29 08:08:22;;;;;;;1.60;0.90;;;18.20;99.90;;;;;;5098405;28;20184;-70
2023/07/29 08:10:47;;;;;;;3.30;1.20;;;18.20;99.90;;;;;;5095003;28;20188;-70
2023/07/29 08:13:13;;;;;;;3.53;1.37;;;18.30;99.90;;;;;;5076509;28;20233;-70
2023/07/29 08:15:38;;;;;;;5.50;1.27;;;18.30;99.90;;;;;;5090129;28;20443;-69
2023/07/29 08:18:04;;;;;;;2.70;1.10;;;18.40;99.90;;;;;;5078336;28;20652;-70
2023/07/29 08:20:30;;;;;;;2.47;1.37;;;18.50;99.90;;;;;;5073945;28;20181;-70
2023/07/29 08:22:56;;;;;;;2.37;1.07;;;18.60;99.90;;;;;;5092006;28;20208;-70
2023/07/29 08:25:21;;;;;;;3.20;1.30;;;18.80;99.90;;;;;;5082141;28;20658;-70
2023/07/29 08:27:47;;;;;;;4.73;2.07;;;19.00;99.90;;;;;;5077901;28;20419;-70
2023/07/29 08:30:13;;;;;;;2.73;1.53;;;19.20;99.90;;;;;;5082075;28;20188;-70
2023/07/29 08:32:38;;;;;;;2.13;1.20;;;19.50;99.90;;;;;;5083469;28;20191;-70
2023/07/29 08:35:04;;;;;;;1.70;0.80;;;19.80;99.90;;;;;;5082164;28;20205;-70
2023/07/29 08:37:31;;;;;;;2.53;1.40;;;20.00;99.90;;;;;;5072603;28;20189;-70
2023/07/29 08:39:56;;;;;;;2.80;0.90;;;20.20;99.90;;;;;;5073459;28;20201;-70
2023/07/29 08:42:26;;;;;;;2.10;1.20;;;20.40;99.90;;;;;;5086247;28;20923;-70
2023/07/29 08:44:54;;;;;;;2.40;1.40;;;20.60;99.90;;;;;;5072880;28;20474;-70
2023/07/29 08:47:20;;;;;;;2.30;1.00;;;21.00;99.90;;;;;;5086951;28;20464;-70
2023/07/29 08:49:47;;;;;;;1.93;0.73;;;21.30;99.90;;;;;;5081112;28;20427;-70
2023/07/29 08:52:14;;;;;;;2.03;0.77;;;21.60;99.90;;;;;;5072803;28;20188;-70
2023/07/29 08:54:40;;;;;;;2.07;1.10;;;22.10;99.90;;;;;;5086471;28;20426;-70
2023/07/29 08:57:06;;;;;;;2.83;0.67;;;22.50;99.90;;;;;;5093207;28;20479;-71
2023/07/29 08:59:33;;;;;;;1.60;0.67;;;22.80;99.90;;;;;;5080493;28;20704;-70
2023/07/29 09:01:59;;;;;;;2.00;0.90;;;22.60;99.90;;;;;;5072817;28;20470;-70
2023/07/29 09:04:25;;;;;;;5.13;0.90;;;22.20;99.90;;;;;;5072928;28;20418;-70
2023/07/29 09:06:51;;;;;;;2.93;1.00;;;22.20;99.90;;;;;;5080811;28;20184;-70
2023/07/29 09:09:17;;;;;;;3.40;1.30;;;22.10;99.90;;;;;;5105521;28;20185;-70
2023/07/29 09:11:43;;;;;;;2.67;1.07;;;22.20;99.90;;;;;;5096014;28;20431;-70
2023/07/29 09:14:10;;;;;;;5.53;1.90;;;22.30;99.90;;;;;;5097470;28;20186;-70
2023/07/29 09:16:36;;;;;;;3.33;1.30;;;22.50;99.90;;;;;;5097719;28;20465;-70
2023/07/29 09:19:03;;;;;;;4.57;1.30;;;23.10;99.90;;;;;;5072409;28;20508;-71
2023/07/29 09:21:29;;;;;;;7.20;2.00;;;23.80;99.90;;;;;;5079977;28;20417;-71
2023/07/29 09:23:55;;;;;;;4.17;1.20;;;24.00;99.90;;;;;;5092842;28;20410;-70
2023/07/29 09:26:26;;;;;;;2.27;0.87;;;24.00;99.90;;;;;;5085238;28;20433;-71
2023/07/29 09:28:53;;;;;;;2.57;1.20;;;23.90;99.90;;;;;;5089452;28;20445;-71
2023/07/29 09:31:21;;;;;;;2.20;1.07;;;23.90;99.90;;;;;;5076559;28;20433;-71
2023/07/29 09:33:47;;;;;;;2.37;1.10;;;23.80;99.90;;;;;;5090692;28;20542;-70
2023/07/29 09:36:13;;;;;;;1.50;0.70;;;23.80;99.90;;;;;;5085658;28;20525;-70
2023/07/29 09:38:39;;;;;;;2.17;0.97;;;23.70;99.90;;;;;;5072483;28;20686;-70
2023/07/29 09:41:05;;;;;;;2.77;1.10;;;23.40;99.90;;;;;;5072701;28;20434;-71
2023/07/29 09:43:35;;;;;;;7.60;1.47;;;23.70;99.90;;;;;;5071590;28;20176;-71
2023/07/29 09:46:02;;;;;;;2.13;1.10;;;24.00;99.90;;;;;;5072758;28;20183;-73
2023/07/29 09:48:31;;;;;;;2.20;1.23;;;23.70;99.90;;;;;;5078642;28;20509;-71
2023/07/29 09:50:56;;;;;;;3.77;1.40;;;23.50;99.90;;;;;;5084524;28;20502;-72
2023/07/29 09:53:22;;;;;;;2.70;1.40;;;23.80;99.90;;;;;;5087704;28;20517;-72
2023/07/29 09:55:48;;;;;;;3.40;1.17;;;24.00;99.90;;;;;;5083769;28;20183;-72
2023/07/29 09:58:14;;;;;;;2.40;1.03;;;24.50;99.90;;;;;;5074331;28;20185;-72
2023/07/29 10:00:40;;;;;;;5.13;1.00;;;25.20;99.90;;;;;;5080424;28;20187;-72
2023/07/29 10:03:07;;;;;;;3.10;1.23;;;25.20;99.90;;;;;;5071593;28;20177;-71
2023/07/29 10:05:34;;;;;;;3.80;1.40;;;25.30;99.90;;;;;;5071785;28;20204;-71
2023/07/29 10:08:01;;;;;;;2.40;1.20;;;25.20;99.90;;;;;;5074868;28;20176;-72
2023/07/29 10:10:27;;;;;;;3.53;1.40;;;25.00;99.90;;;;;;5088918;28;20189;-70
2023/07/29 10:12:54;;;;;;;2.40;1.00;;;25.00;99.90;;;;;;5075696;28;20184;-69
2023/07/29 10:15:21;;;;;;;2.97;1.33;;;25.50;99.90;;;;;;5080443;28;20187;-69
2023/07/29 10:17:47;;;;;;;2.80;1.40;;;25.30;99.90;;;;;;5087083;28;20184;-69
2023/07/29 10:20:13;;;;;;;3.70;1.37;;;24.80;99.90;;;;;;5081010;28;20210;-69
2023/07/29 10:22:40;;;;;;;2.30;1.10;;;24.80;99.90;;;;;;5078009;28;20426;-69
2023/07/29 10:25:22;;;;;;;3.20;1.00;;;24.60;99.90;;;;;;5082124;28;20205;-70
2023/07/29 10:27:53;;;;;;;2.20;1.20;;;24.40;99.90;;;;;;5071096;28;20426;-69
2023/07/29 10:30:19;;;;;;;4.53;1.27;;;24.40;99.90;;;;;;5071845;28;20841;-69
2023/07/29 10:32:45;;;;;;;4.33;1.73;;;24.60;99.90;;;;;;5081960;28;20422;-69
2023/07/29 10:35:15;;;;;;;3.20;1.30;;;24.50;99.90;;;;;;5073968;28;20199;-69
2023/07/29 10:37:41;;;;;;;2.53;1.27;;;24.60;99.90;;;;;;5071351;28;21104;-69
2023/07/29 10:40:09;;;;;;;2.57;1.20;;;24.80;99.30;;;;;;5083729;28;20458;-69
2023/07/29 10:42:36;;;;;;;2.40;1.10;;;24.70;99.90;;;;;;5073291;28;20422;-68
2023/07/29 10:45:20;;;;;;;2.20;1.10;;;24.50;99.90;;;;;;5078196;28;20708;-69
2023/07/29 10:47:47;;;;;;;2.30;1.00;;;24.40;99.90;;;;;;5079743;28;20412;-69
2023/07/29 10:50:21;;;;;;;1.90;1.00;;;24.80;99.90;;;;;;5077906;28;20410;-69
2023/07/29 10:52:52;;;;;;;2.37;0.90;;;24.90;99.90;;;;;;5091613;28;20444;-69
2023/07/29 10:55:28;;;;;;;1.77;1.03;;;24.80;99.90;;;;;;5090816;28;20425;-68
2023/07/29 10:58:04;;;;;;;2.63;1.37;;;24.80;99.90;;;;;;5091254;28;20946;-69
2023/07/29 11:00:32;;;;;;;3.10;1.70;;;24.50;99.90;;;;;;5085388;28;20472;-69
2023/07/29 11:03:06;;;;;;;2.30;1.20;;;24.40;99.80;;;;;;5070883;28;20414;-68
2023/07/29 11:05:53;;;;;;;2.07;0.97;;;24.40;99.80;;;;;;5078177;28;20408;-69
2023/07/29 11:08:29;;;;;;;2.40;1.40;;;24.20;99.90;;;;;;5099240;28;20441;-69
2023/07/29 11:11:06;;;;;;;2.70;1.20;;;24.30;99.90;;;;;;5097901;28;20414;-68
2023/07/29 11:13:37;;;;;;;1.93;0.93;;;24.50;99.90;;;;;;5070386;28;20453;-69
2023/07/29 11:16:04;;;;;;;8.83;3.63;;;24.60;99.90;;;;;;5090096;28;20958;-69
2023/07/29 11:18:34;;;;;;;2.67;1.10;;;24.60;99.50;;;;;;5082122;28;20516;-69
2023/07/29 11:21:01;;;;;;;3.10;1.00;;;24.40;99.60;;;;;;5084014;28;20417;-69
2023/07/29 11:23:32;;;;;;;2.23;1.17;;;24.50;99.90;;;;;;5070607;28;20460;-70
2023/07/29 11:25:58;;;;;;;3.77;1.73;;;24.50;98.60;;;;;;5070596;28;20415;-69
2023/07/29 11:28:25;;;;;;;2.80;1.20;;;24.50;99.80;;;;;;5093319;28;20422;-69
2023/07/29 11:30:51;;;;;;;2.53;1.27;;;24.60;98.60;;;;;;5095501;28;20947;-69
2023/07/29 11:33:21;;;;;;;2.90;1.43;;;25.00;98.60;;;;;;5092746;28;20420;-70
2023/07/29 11:35:47;;;;;;;3.60;1.57;;;25.30;98.70;;;;;;5077630;28;20446;-70
2023/07/29 11:38:17;;;;;;;2.87;1.10;;;25.40;97.80;;;;;;5085290;28;20421;-69
2023/07/29 11:40:43;;;;;;;2.20;1.10;;;25.40;97.60;;;;;;5081519;28;20191;-69
2023/07/29 11:43:08;;;;;;;2.77;1.47;;;25.60;96.90;;;;;;5093769;28;20418;-71
2023/07/29 11:45:34;;;;;;;1.97;1.07;;;25.70;95.60;;;;;;5076898;28;20200;-71
2023/07/29 11:48:03;;;;;;;2.77;1.20;;;25.40;95.60;;;;;;5090251;28;20179;-71
2023/07/29 11:50:29;;;;;;;2.43;1.20;;;25.40;95.90;;;;;;5076602;28;20532;-71
2023/07/29 11:52:54;;;;;;;2.57;1.47;;;25.30;95.40;;;;;;5073724;28;20419;-71
2023/07/29 11:55:21;;;;;;;2.67;1.53;;;25.20;95.40;;;;;;5077752;28;20187;-71
2023/07/29 11:57:51;;;;;;;2.53;1.20;;;25.10;95.40;;;;;;5082487;28;20527;-71
2023/07/29 12:00:18;;;;;;;2.90;1.47;;;24.80;96.50;;;;;;5073820;28;20466;-71
2023/07/29 12:02:46;;;;;;;2.50;1.33;;;25.00;96.00;;;;;;5073624;28;20711;-71
2023/07/29 12:05:13;;;;;;;2.00;1.10;;;25.10;96.80;;;;;;5073240;28;20414;-71
2023/07/29 12:07:39;;;;;;;3.00;1.40;;;25.30;96.70;;;;;;5093816;28;20951;-72
2023/07/29 12:10:05;;;;;;;2.37;1.13;;;25.50;96.00;;;;;;5095873;28;20427;-71
2023/07/29 12:12:31;;;;;;;2.67;1.20;;;25.60;94.90;;;;;;5079577;28;20422;-71
2023/07/29 12:14:57;;;;;;;3.07;1.27;;;25.60;95.00;;;;;;5081375;28;20751;-71
2023/07/29 12:17:22;;;;;;;2.90;1.33;;;25.50;95.10;;;;;;5101428;28;20646;-71
2023/07/29 12:19:48;;;;;;;2.87;1.40;;;25.60;95.70;;;;;;5073574;28;20200;-71
2023/07/29 12:22:18;;;;;;;3.17;1.43;;;25.40;94.50;;;;;;5082452;28;20563;-71
2023/07/29 12:24:44;;;;;;;4.03;1.57;;;25.50;93.40;;;;;;5084584;28;20221;-71
2023/07/29 12:27:14;;;;;;;2.43;1.23;;;25.50;93.30;;;;;;5086804;28;20418;-71
2023/07/29 12:29:41;;;;;;;2.03;1.03;;;25.70;94.10;;;;;;5073209;28;20180;-70
2023/07/29 12:32:07;;;;;;;2.63;1.50;;;25.70;92.70;;;;;;5075082;28;21478;-70
2023/07/29 12:34:33;;;;;;;2.83;1.17;;;25.60;92.00;;;;;;5082811;28;20423;-71
2023/07/29 12:36:59;;;;;;;3.03;1.30;;;25.60;92.30;;;;;;5072560;28;20615;-70
2023/07/29 12:39:28;;;;;;;2.53;1.47;;;25.80;92.00;;;;;;5072395;28;20319;-71
2023/07/29 12:41:59;;;;;;;1.70;0.97;;;25.70;93.10;;;;;;5086855;28;20903;-70
2023/07/29 12:44:29;;;;;;;1.80;0.77;;;25.70;92.90;;;;;;5083820;28;20950;-71